BTN170 VQPR-VEGT
Flight info
| Callsign | BTN170 |
|---|---|
| Flight time | 0h 30m |
| Altitude | 33000 |
| Route | PRO Y5 TAKTI DCT SUBSU DCT OPIMO |
| Aircraft | A319/M-SDE3FGHIRWY/LB1 |
Departure
| Time | 2026-05-08 13:33 |
|---|---|
| Airport | Paro International Airport (VQPR) |
Arrival
| Time | 2026-05-08 14:03 |
|---|---|
| Airport | Lokpriya Gopinath Bordoloi International Airport (VEGT) |
| Time | Latitude | Longitude | Altitude | Speed | Heading |
|---|---|---|---|---|---|
| 2026-05-08 13:14 | 27.40563 | 89.42142 | 7320 ft | 0 kts | 239° |
| 2026-05-08 13:27 | 27.40574 | 89.42161 | 7324 ft | 4 kts | 234° |
| 2026-05-08 13:27 | 27.40589 | 89.42185 | 7328 ft | 4 kts | 255° |
| 2026-05-08 13:27 | 27.40590 | 89.42197 | 7329 ft | 1 kts | 330° |
| 2026-05-08 13:29 | 27.40591 | 89.42196 | 7329 ft | 2 kts | 330° |
| 2026-05-08 13:30 | 27.40662 | 89.42158 | 7333 ft | 14 kts | 7° |
| 2026-05-08 13:30 | 27.40680 | 89.42184 | 7336 ft | 0 kts | 59° |
| 2026-05-08 13:30 | 27.40682 | 89.42188 | 7336 ft | 4 kts | 59° |
| 2026-05-08 13:30 | 27.40730 | 89.42208 | 7340 ft | 15 kts | 329° |
| 2026-05-08 13:31 | 27.40891 | 89.42116 | 7340 ft | 36 kts | 330° |
| 2026-05-08 13:31 | 27.41121 | 89.41963 | 7342 ft | 31 kts | 327° |
| 2026-05-08 13:31 | 27.41209 | 89.41902 | 7343 ft | 7 kts | 35° |
| 2026-05-08 13:31 | 27.41182 | 89.41928 | 7342 ft | 5 kts | 151° |
| 2026-05-08 13:32 | 27.41181 | 89.41929 | 7342 ft | 0 kts | 151° |
| 2026-05-08 13:33 | 27.40975 | 89.42058 | 7341 ft | 73 kts | 150° |
| 2026-05-08 13:33 | 27.40325 | 89.42470 | 7329 ft | 139 kts | 150° |
| 2026-05-08 13:33 | 27.39405 | 89.43058 | 7731 ft | 154 kts | 149° |
| 2026-05-08 13:33 | 27.38473 | 89.43617 | 8373 ft | 150 kts | 150° |
| 2026-05-08 13:34 | 27.37607 | 89.44253 | 8957 ft | 149 kts | 140° |
| 2026-05-08 13:34 | 27.36747 | 89.44974 | 9395 ft | 159 kts | 143° |
| 2026-05-08 13:34 | 27.35828 | 89.45717 | 9846 ft | 165 kts | 143° |
| 2026-05-08 13:34 | 27.34895 | 89.46483 | 10290 ft | 169 kts | 142° |
| 2026-05-08 13:35 | 27.33902 | 89.47313 | 10530 ft | 186 kts | 142° |
| 2026-05-08 13:35 | 27.32839 | 89.48198 | 10981 ft | 188 kts | 146° |
| 2026-05-08 13:35 | 27.31822 | 89.48952 | 12091 ft | 166 kts | 145° |
| 2026-05-08 13:35 | 27.30909 | 89.49692 | 13024 ft | 168 kts | 144° |
| 2026-05-08 13:36 | 27.29827 | 89.50373 | 13537 ft | 191 kts | 162° |
| 2026-05-08 13:36 | 27.28436 | 89.50587 | 14059 ft | 215 kts | 178° |
| 2026-05-08 13:36 | 27.26858 | 89.50679 | 14525 ft | 240 kts | 173° |
| 2026-05-08 13:36 | 27.25254 | 89.51455 | 14965 ft | 268 kts | 141° |
| 2026-05-08 13:37 | 27.23860 | 89.53002 | 15496 ft | 295 kts | 135° |
| 2026-05-08 13:37 | 27.22406 | 89.54727 | 16127 ft | 313 kts | 135° |
| 2026-05-08 13:37 | 27.20883 | 89.56554 | 16857 ft | 327 kts | 135° |
| 2026-05-08 13:37 | 27.19318 | 89.58443 | 17816 ft | 332 kts | 135° |
| 2026-05-08 13:38 | 27.17743 | 89.60345 | 18771 ft | 334 kts | 136° |
| 2026-05-08 13:38 | 27.16162 | 89.62246 | 19659 ft | 332 kts | 136° |
| 2026-05-08 13:38 | 27.14588 | 89.64129 | 20512 ft | 333 kts | 137° |
| 2026-05-08 13:38 | 27.12965 | 89.66050 | 20678 ft | 355 kts | 137° |
| 2026-05-08 13:39 | 27.11205 | 89.68122 | 20786 ft | 377 kts | 137° |
| 2026-05-08 13:39 | 27.09343 | 89.70314 | 20896 ft | 397 kts | 136° |
| 2026-05-08 13:39 | 27.07403 | 89.72605 | 21183 ft | 411 kts | 136° |
| 2026-05-08 13:39 | 27.05427 | 89.74952 | 21678 ft | 416 kts | 136° |
| 2026-05-08 13:40 | 27.03428 | 89.77334 | 22211 ft | 421 kts | 136° |
| 2026-05-08 13:40 | 27.01409 | 89.79740 | 22736 ft | 426 kts | 136° |
| 2026-05-08 13:40 | 26.99370 | 89.82164 | 23269 ft | 430 kts | 137° |
| 2026-05-08 13:40 | 26.97308 | 89.84606 | 23697 ft | 431 kts | 137° |
| 2026-05-08 13:41 | 26.95233 | 89.87060 | 24032 ft | 436 kts | 137° |
| 2026-05-08 13:41 | 26.93134 | 89.89536 | 24433 ft | 440 kts | 137° |
| 2026-05-08 13:41 | 26.91014 | 89.92040 | 24855 ft | 444 kts | 138° |
| 2026-05-08 13:41 | 26.88884 | 89.94558 | 25227 ft | 447 kts | 137° |
| 2026-05-08 13:42 | 26.86740 | 89.97094 | 25590 ft | 450 kts | 138° |
| 2026-05-08 13:42 | 26.84567 | 89.99656 | 25900 ft | 456 kts | 139° |
| 2026-05-08 13:42 | 26.82373 | 90.02241 | 26287 ft | 460 kts | 139° |
| 2026-05-08 13:42 | 26.80163 | 90.04845 | 26700 ft | 463 kts | 139° |
| 2026-05-08 13:43 | 26.77962 | 90.07434 | 27072 ft | 466 kts | 139° |
| 2026-05-08 13:43 | 26.75714 | 90.10076 | 27370 ft | 470 kts | 140° |
| 2026-05-08 13:43 | 26.73455 | 90.12733 | 27732 ft | 472 kts | 140° |
| 2026-05-08 13:43 | 26.71183 | 90.15401 | 28109 ft | 475 kts | 140° |
| 2026-05-08 13:44 | 26.68896 | 90.18083 | 28471 ft | 478 kts | 140° |
| 2026-05-08 13:44 | 26.66598 | 90.20776 | 28811 ft | 480 kts | 140° |
| 2026-05-08 13:44 | 26.61974 | 90.26193 | 28893 ft | 481 kts | 140° |
| 2026-05-08 13:45 | 26.57363 | 90.31601 | 28890 ft | 481 kts | 140° |
| 2026-05-08 13:45 | 26.52746 | 90.37010 | 28859 ft | 478 kts | 140° |
| 2026-05-08 13:46 | 26.50432 | 90.39714 | 28553 ft | 485 kts | 139° |
| 2026-05-08 13:46 | 26.48090 | 90.42449 | 28287 ft | 488 kts | 139° |
| 2026-05-08 13:46 | 26.45742 | 90.45189 | 28028 ft | 489 kts | 139° |
| 2026-05-08 13:46 | 26.43395 | 90.47928 | 27776 ft | 487 kts | 139° |
| 2026-05-08 13:47 | 26.41058 | 90.50650 | 27523 ft | 485 kts | 139° |
| 2026-05-08 13:47 | 26.38729 | 90.53363 | 27274 ft | 483 kts | 139° |
| 2026-05-08 13:47 | 26.36413 | 90.56060 | 27027 ft | 480 kts | 139° |
| 2026-05-08 13:47 | 26.34138 | 90.58709 | 26787 ft | 478 kts | 139° |
| 2026-05-08 13:48 | 26.31843 | 90.61376 | 26159 ft | 477 kts | 138° |
| 2026-05-08 13:48 | 26.29705 | 90.64244 | 25297 ft | 485 kts | 128° |
| 2026-05-08 13:48 | 26.28031 | 90.67528 | 24472 ft | 491 kts | 117° |
| 2026-05-08 13:48 | 26.26917 | 90.71127 | 23819 ft | 491 kts | 105° |
| 2026-05-08 13:49 | 26.26311 | 90.74846 | 23256 ft | 485 kts | 101° |
| 2026-05-08 13:49 | 26.25767 | 90.78529 | 22533 ft | 480 kts | 101° |
| 2026-05-08 13:49 | 26.25221 | 90.82173 | 21824 ft | 474 kts | 101° |
| 2026-05-08 13:49 | 26.24678 | 90.85775 | 21110 ft | 469 kts | 101° |
| 2026-05-08 13:50 | 26.24139 | 90.89336 | 20405 ft | 464 kts | 101° |
| 2026-05-08 13:50 | 26.23605 | 90.92867 | 19721 ft | 460 kts | 101° |
| 2026-05-08 13:50 | 26.23076 | 90.96366 | 19064 ft | 456 kts | 101° |
| 2026-05-08 13:50 | 26.22557 | 90.99813 | 18303 ft | 445 kts | 101° |
| 2026-05-08 13:51 | 26.22053 | 91.03162 | 17530 ft | 433 kts | 101° |
| 2026-05-08 13:51 | 26.21564 | 91.06423 | 16797 ft | 420 kts | 101° |
| 2026-05-08 13:51 | 26.21085 | 91.09597 | 15902 ft | 412 kts | 101° |
| 2026-05-08 13:51 | 26.20611 | 91.12730 | 14896 ft | 408 kts | 101° |
| 2026-05-08 13:52 | 26.20300 | 91.14782 | 14243 ft | 405 kts | 101° |
| 2026-05-08 13:52 | 26.19687 | 91.18832 | 13093 ft | 392 kts | 101° |
| 2026-05-08 13:52 | 26.19387 | 91.20821 | 12720 ft | 380 kts | 101° |
| 2026-05-08 13:52 | 26.18829 | 91.24519 | 12363 ft | 349 kts | 101° |
| 2026-05-08 13:53 | 26.18440 | 91.27103 | 12240 ft | 327 kts | 101° |
| 2026-05-08 13:53 | 26.18068 | 91.29545 | 11941 ft | 315 kts | 101° |
| 2026-05-08 13:53 | 26.17703 | 91.31917 | 11578 ft | 307 kts | 101° |
| 2026-05-08 13:53 | 26.17345 | 91.34238 | 11208 ft | 301 kts | 101° |
| 2026-05-08 13:54 | 26.17113 | 91.35749 | 10982 ft | 297 kts | 101° |
| 2026-05-08 13:54 | 26.16913 | 91.38011 | 10622 ft | 292 kts | 84° |
| 2026-05-08 13:54 | 26.17649 | 91.40072 | 10279 ft | 288 kts | 50° |
| 2026-05-08 13:54 | 26.19242 | 91.41330 | 9961 ft | 281 kts | 18° |
| 2026-05-08 13:55 | 26.21112 | 91.41860 | 9651 ft | 275 kts | 12° |
| 2026-05-08 13:55 | 26.22924 | 91.42495 | 9308 ft | 272 kts | 22° |
| 2026-05-08 13:55 | 26.25996 | 91.44836 | 8661 ft | 266 kts | 44° |
| 2026-05-08 13:56 | 26.27257 | 91.46328 | 8339 ft | 263 kts | 50° |
| 2026-05-08 13:56 | 26.28369 | 91.47931 | 8019 ft | 260 kts | 55° |
| 2026-05-08 13:56 | 26.29335 | 91.49622 | 7710 ft | 257 kts | 60° |
| 2026-05-08 13:56 | 26.30141 | 91.51382 | 7419 ft | 252 kts | 66° |
| 2026-05-08 13:57 | 26.30778 | 91.53165 | 7126 ft | 245 kts | 71° |
| 2026-05-08 13:57 | 26.31253 | 91.54962 | 6845 ft | 238 kts | 76° |
| 2026-05-08 13:57 | 26.31572 | 91.56751 | 6560 ft | 233 kts | 82° |
| 2026-05-08 13:57 | 26.31744 | 91.58525 | 6257 ft | 228 kts | 86° |
| 2026-05-08 13:58 | 26.31735 | 91.60274 | 5968 ft | 222 kts | 98° |
| 2026-05-08 13:58 | 26.31331 | 91.61892 | 5633 ft | 213 kts | 114° |
| 2026-05-08 13:58 | 26.30585 | 91.63255 | 5270 ft | 206 kts | 130° |
| 2026-05-08 13:58 | 26.29543 | 91.64350 | 4778 ft | 207 kts | 146° |
| 2026-05-08 13:59 | 26.28274 | 91.65095 | 4265 ft | 207 kts | 161° |
| 2026-05-08 13:59 | 26.26872 | 91.65428 | 3754 ft | 206 kts | 177° |
| 2026-05-08 13:59 | 26.25448 | 91.65332 | 3245 ft | 205 kts | 192° |
| 2026-05-08 13:59 | 26.24132 | 91.64835 | 2787 ft | 194 kts | 204° |
| 2026-05-08 14:00 | 26.22943 | 91.64272 | 2502 ft | 174 kts | 204° |
| 2026-05-08 14:00 | 26.21880 | 91.63775 | 2264 ft | 158 kts | 204° |
| 2026-05-08 14:00 | 26.20893 | 91.63311 | 2055 ft | 151 kts | 204° |
| 2026-05-08 14:00 | 26.19935 | 91.62861 | 1856 ft | 148 kts | 204° |
| 2026-05-08 14:01 | 26.18993 | 91.62416 | 1674 ft | 143 kts | 204° |
| 2026-05-08 14:01 | 26.18106 | 91.61999 | 1488 ft | 135 kts | 204° |
| 2026-05-08 14:01 | 26.17254 | 91.61596 | 1310 ft | 130 kts | 204° |
| 2026-05-08 14:01 | 26.16439 | 91.61208 | 1138 ft | 126 kts | 203° |
| 2026-05-08 14:02 | 26.15638 | 91.60832 | 968 ft | 124 kts | 202° |
| 2026-05-08 14:02 | 26.14844 | 91.60461 | 796 ft | 123 kts | 203° |
| 2026-05-08 14:02 | 26.14056 | 91.60084 | 628 ft | 123 kts | 202° |
| 2026-05-08 14:02 | 26.13269 | 91.59718 | 470 ft | 122 kts | 202° |
| 2026-05-08 14:03 | 26.12482 | 91.59357 | 315 ft | 122 kts | 202° |
| 2026-05-08 14:03 | 26.11701 | 91.59000 | 169 ft | 115 kts | 202° |
| 2026-05-08 14:03 | 26.11087 | 91.58719 | 168 ft | 73 kts | 202° |
| 2026-05-08 14:03 | 26.10808 | 91.58589 | 169 ft | 17 kts | 204° |
| 2026-05-08 14:04 | 26.10743 | 91.58616 | 169 ft | 13 kts | 107° |
| 2026-05-08 14:04 | 26.10707 | 91.58694 | 168 ft | 14 kts | 122° |
| 2026-05-08 14:04 | 26.10635 | 91.58685 | 167 ft | 9 kts | 201° |
| 2026-05-08 14:04 | 26.10617 | 91.58677 | 167 ft | 0 kts | 203° |
| 2026-05-08 14:05 | 26.10605 | 91.58671 | 167 ft | 1 kts | 199° |
| 2026-05-08 14:05 | 26.10586 | 91.58679 | 167 ft | 2 kts | 145° |
| 2026-05-08 14:05 | 26.10578 | 91.58696 | 167 ft | 3 kts | 118° |
| 2026-05-08 14:05 | 26.10570 | 91.58715 | 167 ft | 1 kts | 114° |
| 2026-05-08 14:06 | 26.10568 | 91.58719 | 167 ft | 0 kts | 114° |